sensor_id;sensor_type;location;lat;lon;timestamp;temperature;humidity
22923;DHT22;11627;51.322;22.816;2022-07-12T00:00:14;12.40;36.30
22923;DHT22;11627;51.322;22.816;2022-07-12T00:02:41;12.60;36.50
22923;DHT22;11627;51.322;22.816;2022-07-12T00:05:07;12.50;29.70
22923;DHT22;11627;51.322;22.816;2022-07-12T00:07:34;12.80;35.50
22923;DHT22;11627;51.322;22.816;2022-07-12T00:10:01;12.40;37.20
22923;DHT22;11627;51.322;22.816;2022-07-12T00:12:28;12.80;40.00
22923;DHT22;11627;51.322;22.816;2022-07-12T00:14:55;12.70;40.00
22923;DHT22;11627;51.322;22.816;2022-07-12T00:17:22;12.40;42.80
22923;DHT22;11627;51.322;22.816;2022-07-12T00:19:48;12.30;48.20
22923;DHT22;11627;51.322;22.816;2022-07-12T00:22:14;12.30;39.80
22923;DHT22;11627;51.322;22.816;2022-07-12T00:24:41;12.50;53.70
22923;DHT22;11627;51.322;22.816;2022-07-12T00:27:08;12.00;54.90
22923;DHT22;11627;51.322;22.816;2022-07-12T00:29:36;12.10;48.20
22923;DHT22;11627;51.322;22.816;2022-07-12T00:32:03;12.10;52.10
22923;DHT22;11627;51.322;22.816;2022-07-12T00:34:29;12.10;51.20
22923;DHT22;11627;51.322;22.816;2022-07-12T00:36:56;12.20;47.20
22923;DHT22;11627;51.322;22.816;2022-07-12T00:39:23;12.20;47.50
22923;DHT22;11627;51.322;22.816;2022-07-12T00:41:50;12.20;45.40
22923;DHT22;11627;51.322;22.816;2022-07-12T00:44:17;12.10;45.70
22923;DHT22;11627;51.322;22.816;2022-07-12T00:46:43;12.10;46.50
22923;DHT22;11627;51.322;22.816;2022-07-12T00:49:12;12.30;55.00
22923;DHT22;11627;51.322;22.816;2022-07-12T00:51:43;12.10;57.10
22923;DHT22;11627;51.322;22.816;2022-07-12T00:54:10;12.20;48.20
22923;DHT22;11627;51.322;22.816;2022-07-12T00:56:36;12.20;42.50
22923;DHT22;11627;51.322;22.816;2022-07-12T00:59:03;12.30;49.50
22923;DHT22;11627;51.322;22.816;2022-07-12T01:01:28;12.30;48.20
22923;DHT22;11627;51.322;22.816;2022-07-12T01:03:55;12.10;47.30
22923;DHT22;11627;51.322;22.816;2022-07-12T01:06:22;12.40;45.60
22923;DHT22;11627;51.322;22.816;2022-07-12T01:08:49;12.20;45.80
22923;DHT22;11627;51.322;22.816;2022-07-12T01:11:16;12.20;46.50
22923;DHT22;11627;51.322;22.816;2022-07-12T01:13:44;12.30;45.20
22923;DHT22;11627;51.322;22.816;2022-07-12T01:16:12;12.30;38.80
22923;DHT22;11627;51.322;22.816;2022-07-12T01:18:40;12.00;46.80
22923;DHT22;11627;51.322;22.816;2022-07-12T01:21:07;12.20;40.50
22923;DHT22;11627;51.322;22.816;2022-07-12T01:23:36;12.40;49.40
22923;DHT22;11627;51.322;22.816;2022-07-12T01:26:03;12.00;52.10
22923;DHT22;11627;51.322;22.816;2022-07-12T01:30:55;12.10;50.10
22923;DHT22;11627;51.322;22.816;2022-07-12T01:33:22;11.80;51.00
22923;DHT22;11627;51.322;22.816;2022-07-12T01:35:48;12.10;49.80
22923;DHT22;11627;51.322;22.816;2022-07-12T01:38:16;12.10;48.80
22923;DHT22;11627;51.322;22.816;2022-07-12T01:40:43;12.20;51.10
22923;DHT22;11627;51.322;22.816;2022-07-12T01:43:10;12.10;54.20
22923;DHT22;11627;51.322;22.816;2022-07-12T01:48:04;11.90;56.80
22923;DHT22;11627;51.322;22.816;2022-07-12T01:50:29;11.70;59.00
22923;DHT22;11627;51.322;22.816;2022-07-12T01:52:56;12.00;58.80
22923;DHT22;11627;51.322;22.816;2022-07-12T01:55:22;11.80;51.30
22923;DHT22;11627;51.322;22.816;2022-07-12T01:57:49;11.90;57.30
22923;DHT22;11627;51.322;22.816;2022-07-12T02:00:15;11.70;56.60
22923;DHT22;11627;51.322;22.816;2022-07-12T02:02:44;11.90;52.90
22923;DHT22;11627;51.322;22.816;2022-07-12T02:05:10;12.00;52.80
22923;DHT22;11627;51.322;22.816;2022-07-12T02:07:39;11.80;47.10
22923;DHT22;11627;51.322;22.816;2022-07-12T02:10:06;11.60;54.90
22923;DHT22;11627;51.322;22.816;2022-07-12T02:12:35;12.00;53.90
22923;DHT22;11627;51.322;22.816;2022-07-12T02:15:02;12.10;55.10
22923;DHT22;11627;51.322;22.816;2022-07-12T02:17:29;12.00;54.80
22923;DHT22;11627;51.322;22.816;2022-07-12T02:19:55;11.50;55.30
22923;DHT22;11627;51.322;22.816;2022-07-12T02:22:22;11.60;57.20
22923;DHT22;11627;51.322;22.816;2022-07-12T02:24:49;11.50;56.80
22923;DHT22;11627;51.322;22.816;2022-07-12T02:27:16;11.60;59.50
22923;DHT22;11627;51.322;22.816;2022-07-12T02:29:42;11.80;60.50
22923;DHT22;11627;51.322;22.816;2022-07-12T02:32:09;11.20;61.00
22923;DHT22;11627;51.322;22.816;2022-07-12T02:34:34;11.40;67.60
22923;DHT22;11627;51.322;22.816;2022-07-12T02:37:01;11.50;59.10
22923;DHT22;11627;51.322;22.816;2022-07-12T02:39:29;11.40;58.70
22923;DHT22;11627;51.322;22.816;2022-07-12T02:41:56;11.40;67.10
22923;DHT22;11627;51.322;22.816;2022-07-12T02:44:21;11.50;59.50
22923;DHT22;11627;51.322;22.816;2022-07-12T02:46:48;11.60;65.80
22923;DHT22;11627;51.322;22.816;2022-07-12T02:49:15;11.30;66.30
22923;DHT22;11627;51.322;22.816;2022-07-12T02:51:41;11.50;67.50
22923;DHT22;11627;51.322;22.816;2022-07-12T02:54:08;11.20;69.10
22923;DHT22;11627;51.322;22.816;2022-07-12T02:58:59;11.30;72.90
22923;DHT22;11627;51.322;22.816;2022-07-12T03:01:25;11.60;73.00
22923;DHT22;11627;51.322;22.816;2022-07-12T03:03:52;11.50;72.10
22923;DHT22;11627;51.322;22.816;2022-07-12T03:06:18;11.60;71.20
22923;DHT22;11627;51.322;22.816;2022-07-12T03:11:09;11.50;72.40
22923;DHT22;11627;51.322;22.816;2022-07-12T03:13:36;11.30;72.10
22923;DHT22;11627;51.322;22.816;2022-07-12T03:18:30;11.40;74.60
22923;DHT22;11627;51.322;22.816;2022-07-12T03:23:23;11.60;68.30
22923;DHT22;11627;51.322;22.816;2022-07-12T03:28:16;11.70;79.50
22923;DHT22;11627;51.322;22.816;2022-07-12T03:30:43;11.80;80.20
22923;DHT22;11627;51.322;22.816;2022-07-12T03:33:10;11.80;80.70
22923;DHT22;11627;51.322;22.816;2022-07-12T03:38:03;12.10;81.70
22923;DHT22;11627;51.322;22.816;2022-07-12T03:40:31;12.30;81.00
22923;DHT22;11627;51.322;22.816;2022-07-12T03:43:00;11.80;79.00
22923;DHT22;11627;51.322;22.816;2022-07-12T03:45:26;12.10;78.50
22923;DHT22;11627;51.322;22.816;2022-07-12T03:47:53;12.00;71.50
22923;DHT22;11627;51.322;22.816;2022-07-12T03:50:19;12.10;72.60
22923;DHT22;11627;51.322;22.816;2022-07-12T03:52:46;12.20;73.60
22923;DHT22;11627;51.322;22.816;2022-07-12T03:55:12;12.20;82.50
22923;DHT22;11627;51.322;22.816;2022-07-12T03:57:38;12.20;84.20
22923;DHT22;11627;51.322;22.816;2022-07-12T04:00:07;12.20;84.70
22923;DHT22;11627;51.322;22.816;2022-07-12T04:02:39;12.30;84.40
22923;DHT22;11627;51.322;22.816;2022-07-12T04:05:07;12.40;86.10
22923;DHT22;11627;51.322;22.816;2022-07-12T04:07:34;12.50;85.70
22923;DHT22;11627;51.322;22.816;2022-07-12T04:10:00;12.50;85.80
22923;DHT22;11627;51.322;22.816;2022-07-12T04:12:28;12.80;77.90
22923;DHT22;11627;51.322;22.816;2022-07-12T04:14:53;12.50;78.40
22923;DHT22;11627;51.322;22.816;2022-07-12T04:17:19;12.50;78.40
22923;DHT22;11627;51.322;22.816;2022-07-12T04:19:44;12.80;85.10
22923;DHT22;11627;51.322;22.816;2022-07-12T04:22:11;12.60;76.70
22923;DHT22;11627;51.322;22.816;2022-07-12T04:24:38;12.70;76.80
22923;DHT22;11627;51.322;22.816;2022-07-12T04:27:05;12.50;83.30
22923;DHT22;11627;51.322;22.816;2022-07-12T04:29:32;12.70;82.30
22923;DHT22;11627;51.322;22.816;2022-07-12T04:31:58;12.40;83.80
22923;DHT22;11627;51.322;22.816;2022-07-12T04:36:50;12.70;86.20
22923;DHT22;11627;51.322;22.816;2022-07-12T04:39:16;12.70;86.60
22923;DHT22;11627;51.322;22.816;2022-07-12T04:41:41;12.60;86.10
22923;DHT22;11627;51.322;22.816;2022-07-12T04:44:08;12.60;86.60
22923;DHT22;11627;51.322;22.816;2022-07-12T04:46:35;12.60;86.20
22923;DHT22;11627;51.322;22.816;2022-07-12T04:49:02;12.60;84.70
22923;DHT22;11627;51.322;22.816;2022-07-12T04:51:28;13.00;84.60
22923;DHT22;11627;51.322;22.816;2022-07-12T04:53:55;12.80;78.10
22923;DHT22;11627;51.322;22.816;2022-07-12T04:56:22;12.80;76.70
22923;DHT22;11627;51.322;22.816;2022-07-12T04:58:49;12.80;77.90
22923;DHT22;11627;51.322;22.816;2022-07-12T05:01:16;12.90;78.80
22923;DHT22;11627;51.322;22.816;2022-07-12T05:03:43;12.90;78.60
22923;DHT22;11627;51.322;22.816;2022-07-12T05:06:09;12.90;78.00
22923;DHT22;11627;51.322;22.816;2022-07-12T05:08:35;13.00;78.30
22923;DHT22;11627;51.322;22.816;2022-07-12T05:11:01;13.10;78.10
22923;DHT22;11627;51.322;22.816;2022-07-12T05:13:27;13.10;75.70
22923;DHT22;11627;51.322;22.816;2022-07-12T05:15:53;13.10;76.00
22923;DHT22;11627;51.322;22.816;2022-07-12T05:18:20;13.10;75.20
22923;DHT22;11627;51.322;22.816;2022-07-12T05:20:45;13.10;76.30
22923;DHT22;11627;51.322;22.816;2022-07-12T05:23:12;13.20;76.20
22923;DHT22;11627;51.322;22.816;2022-07-12T05:28:04;13.20;73.40
22923;DHT22;11627;51.322;22.816;2022-07-12T05:30:30;13.20;74.30
22923;DHT22;11627;51.322;22.816;2022-07-12T05:32:57;13.30;75.10
22923;DHT22;11627;51.322;22.816;2022-07-12T05:35:23;13.30;74.00
22923;DHT22;11627;51.322;22.816;2022-07-12T05:37:50;13.40;75.00
22923;DHT22;11627;51.322;22.816;2022-07-12T05:40:15;13.10;80.30
22923;DHT22;11627;51.322;22.816;2022-07-12T05:42:44;13.30;73.90
22923;DHT22;11627;51.322;22.816;2022-07-12T05:45:10;15.00;74.20
22923;DHT22;11627;51.322;22.816;2022-07-12T05:47:36;13.50;76.00
22923;DHT22;11627;51.322;22.816;2022-07-12T05:50:04;13.60;75.20
22923;DHT22;11627;51.322;22.816;2022-07-12T05:52:32;13.30;74.80
22923;DHT22;11627;51.322;22.816;2022-07-12T05:55:16;13.50;76.30
22923;DHT22;11627;51.322;22.816;2022-07-12T05:57:42;13.60;68.90
22923;DHT22;11627;51.322;22.816;2022-07-12T06:00:08;13.70;66.60
22923;DHT22;11627;51.322;22.816;2022-07-12T06:02:36;13.80;61.00
22923;DHT22;11627;51.322;22.816;2022-07-12T06:05:03;13.80;57.80
22923;DHT22;11627;51.322;22.816;2022-07-12T06:07:30;13.80;59.50
22923;DHT22;11627;51.322;22.816;2022-07-12T06:09:57;13.90;53.50
22923;DHT22;11627;51.322;22.816;2022-07-12T06:12:23;14.10;63.70
22923;DHT22;11627;51.322;22.816;2022-07-12T06:14:50;14.00;58.50
22923;DHT22;11627;51.322;22.816;2022-07-12T06:17:17;14.00;56.80
22923;DHT22;11627;51.322;22.816;2022-07-12T06:19:48;14.00;42.30
22923;DHT22;11627;51.322;22.816;2022-07-12T06:22:14;14.00;50.00
22923;DHT22;11627;51.322;22.816;2022-07-12T06:24:42;13.80;43.60
22923;DHT22;11627;51.322;22.816;2022-07-12T06:27:08;13.90;47.50
22923;DHT22;11627;51.322;22.816;2022-07-12T06:29:35;14.10;47.10
22923;DHT22;11627;51.322;22.816;2022-07-12T06:32:02;14.10;38.70
22923;DHT22;11627;51.322;22.816;2022-07-12T06:34:29;14.10;40.30
22923;DHT22;11627;51.322;22.816;2022-07-12T06:36:55;14.10;37.00
22923;DHT22;11627;51.322;22.816;2022-07-12T06:39:21;14.50;38.70
22923;DHT22;11627;51.322;22.816;2022-07-12T06:41:48;14.10;37.20
22923;DHT22;11627;51.322;22.816;2022-07-12T06:44:14;14.20;37.10
22923;DHT22;11627;51.322;22.816;2022-07-12T06:46:41;14.50;43.00
22923;DHT22;11627;51.322;22.816;2022-07-12T06:49:08;14.60;40.10
22923;DHT22;11627;51.322;22.816;2022-07-12T06:54:06;14.30;37.20
22923;DHT22;11627;51.322;22.816;2022-07-12T06:56:37;14.40;37.00
22923;DHT22;11627;51.322;22.816;2022-07-12T06:59:04;14.30;28.40
22923;DHT22;11627;51.322;22.816;2022-07-12T07:01:30;14.30;27.00
22923;DHT22;11627;51.322;22.816;2022-07-12T07:03:59;14.30;26.20
22923;DHT22;11627;51.322;22.816;2022-07-12T07:06:25;14.40;25.30
22923;DHT22;11627;51.322;22.816;2022-07-12T07:08:53;14.40;26.30
22923;DHT22;11627;51.322;22.816;2022-07-12T07:11:21;14.40;20.30
22923;DHT22;11627;51.322;22.816;2022-07-12T07:13:48;14.60;18.90
22923;DHT22;11627;51.322;22.816;2022-07-12T07:16:14;14.70;18.10
22923;DHT22;11627;51.322;22.816;2022-07-12T07:18:40;14.40;20.20
22923;DHT22;11627;51.322;22.816;2022-07-12T07:21:08;14.50;14.80
22923;DHT22;11627;51.322;22.816;2022-07-12T07:23:35;14.60;14.70
22923;DHT22;11627;51.322;22.816;2022-07-12T07:26:01;14.80;15.90
22923;DHT22;11627;51.322;22.816;2022-07-12T07:28:28;14.70;9.90
22923;DHT22;11627;51.322;22.816;2022-07-12T07:30:56;14.80;5.30
22923;DHT22;11627;51.322;22.816;2022-07-12T07:33:24;14.80;5.50
22923;DHT22;11627;51.322;22.816;2022-07-12T07:35:51;14.80;1.00
22923;DHT22;11627;51.322;22.816;2022-07-12T07:38:19;15.00;5.10
22923;DHT22;11627;51.322;22.816;2022-07-12T07:40:48;15.10;4.60
22923;DHT22;11627;51.322;22.816;2022-07-12T07:43:15;15.10;1.00
22923;DHT22;11627;51.322;22.816;2022-07-12T07:45:40;15.20;1.00
22923;DHT22;11627;51.322;22.816;2022-07-12T07:48:09;15.20;1.00
22923;DHT22;11627;51.322;22.816;2022-07-12T07:50:35;15.30;1.00
22923;DHT22;11627;51.322;22.816;2022-07-12T07:53:04;15.30;1.00
22923;DHT22;11627;51.322;22.816;2022-07-12T07:55:33;15.40;1.00
22923;DHT22;11627;51.322;22.816;2022-07-12T07:57:59;15.40;1.00
22923;DHT22;11627;51.322;22.816;2022-07-12T08:00:28;15.40;1.00
22923;DHT22;11627;51.322;22.816;2022-07-12T08:02:59;15.70;1.00
22923;DHT22;11627;51.322;22.816;2022-07-12T08:05:26;15.30;1.00
22923;DHT22;11627;51.322;22.816;2022-07-12T08:07:57;15.70;1.00
22923;DHT22;11627;51.322;22.816;2022-07-12T08:10:24;15.80;1.00
22923;DHT22;11627;51.322;22.816;2022-07-12T08:12:52;15.60;1.00
22923;DHT22;11627;51.322;22.816;2022-07-12T08:15:19;15.70;1.00
22923;DHT22;11627;51.322;22.816;2022-07-12T08:17:46;15.70;1.00
22923;DHT22;11627;51.322;22.816;2022-07-12T08:22:46;15.80;1.00
22923;DHT22;11627;51.322;22.816;2022-07-12T08:25:13;15.80;1.00
22923;DHT22;11627;51.322;22.816;2022-07-12T08:27:40;15.80;1.00
22923;DHT22;11627;51.322;22.816;2022-07-12T08:30:08;16.00;1.00
22923;DHT22;11627;51.322;22.816;2022-07-12T08:32:37;16.00;1.00
22923;DHT22;11627;51.322;22.816;2022-07-12T08:35:04;15.90;1.00
22923;DHT22;11627;51.322;22.816;2022-07-12T08:37:31;15.90;1.00
22923;DHT22;11627;51.322;22.816;2022-07-12T08:39:58;15.90;1.00
22923;DHT22;11627;51.322;22.816;2022-07-12T08:42:25;16.50;1.00
22923;DHT22;11627;51.322;22.816;2022-07-12T08:44:58;16.00;1.00
22923;DHT22;11627;51.322;22.816;2022-07-12T08:47:25;16.00;1.00
22923;DHT22;11627;51.322;22.816;2022-07-12T08:52:57;16.10;1.00
22923;DHT22;11627;51.322;22.816;2022-07-12T08:55:42;16.10;1.00
22923;DHT22;11627;51.322;22.816;2022-07-12T08:58:19;16.20;1.00
22923;DHT22;11627;51.322;22.816;2022-07-12T09:00:46;16.00;1.00
22923;DHT22;11627;51.322;22.816;2022-07-12T09:03:13;16.10;1.00
22923;DHT22;11627;51.322;22.816;2022-07-12T09:08:40;16.40;1.00
22923;DHT22;11627;51.322;22.816;2022-07-12T09:11:08;16.30;1.00
22923;DHT22;11627;51.322;22.816;2022-07-12T09:13:52;16.30;1.00
22923;DHT22;11627;51.322;22.816;2022-07-12T09:16:21;16.50;1.00
22923;DHT22;11627;51.322;22.816;2022-07-12T09:18:50;17.60;1.00
22923;DHT22;11627;51.322;22.816;2022-07-12T09:21:28;18.10;1.00
22923;DHT22;11627;51.322;22.816;2022-07-12T09:23:59;16.70;1.00
22923;DHT22;11627;51.322;22.816;2022-07-12T09:26:35;16.30;1.00
22923;DHT22;11627;51.322;22.816;2022-07-12T09:29:11;16.20;1.00
22923;DHT22;11627;51.322;22.816;2022-07-12T09:31:43;16.40;1.00
22923;DHT22;11627;51.322;22.816;2022-07-12T09:34:30;16.40;1.00
22923;DHT22;11627;51.322;22.816;2022-07-12T09:37:16;16.60;1.00
22923;DHT22;11627;51.322;22.816;2022-07-12T09:39:43;16.50;1.00
22923;DHT22;11627;51.322;22.816;2022-07-12T09:42:11;16.70;1.00
22923;DHT22;11627;51.322;22.816;2022-07-12T09:44:42;17.00;1.00
22923;DHT22;11627;51.322;22.816;2022-07-12T09:47:13;18.70;1.00
22923;DHT22;11627;51.322;22.816;2022-07-12T09:49:45;17.10;1.00
22923;DHT22;11627;51.322;22.816;2022-07-12T09:52:19;17.00;1.00
22923;DHT22;11627;51.322;22.816;2022-07-12T09:54:51;17.40;1.00
22923;DHT22;11627;51.322;22.816;2022-07-12T09:57:27;17.30;1.00
22923;DHT22;11627;51.322;22.816;2022-07-12T10:00:01;17.30;1.00
22923;DHT22;11627;51.322;22.816;2022-07-12T10:02:33;17.20;1.00
22923;DHT22;11627;51.322;22.816;2022-07-12T10:05:01;17.10;1.00
22923;DHT22;11627;51.322;22.816;2022-07-12T10:07:31;17.10;1.00
22923;DHT22;11627;51.322;22.816;2022-07-12T10:09:58;17.10;1.00
22923;DHT22;11627;51.322;22.816;2022-07-12T10:12:26;17.10;1.00
22923;DHT22;11627;51.322;22.816;2022-07-12T10:14:59;18.40;1.00
22923;DHT22;11627;51.322;22.816;2022-07-12T10:17:29;17.30;1.00
22923;DHT22;11627;51.322;22.816;2022-07-12T10:20:20;18.40;1.00
22923;DHT22;11627;51.322;22.816;2022-07-12T10:22:53;17.30;1.00
22923;DHT22;11627;51.322;22.816;2022-07-12T10:25:33;17.50;1.00
22923;DHT22;11627;51.322;22.816;2022-07-12T10:28:01;17.40;1.00
22923;DHT22;11627;51.322;22.816;2022-07-12T10:30:30;17.40;1.00
22923;DHT22;11627;51.322;22.816;2022-07-12T10:32:58;17.50;1.00
22923;DHT22;11627;51.322;22.816;2022-07-12T10:35:28;17.50;1.00
22923;DHT22;11627;51.322;22.816;2022-07-12T10:38:15;17.60;1.00
22923;DHT22;11627;51.322;22.816;2022-07-12T10:40:43;17.70;1.00
22923;DHT22;11627;51.322;22.816;2022-07-12T10:43:18;17.80;1.00
22923;DHT22;11627;51.322;22.816;2022-07-12T10:46:18;18.10;1.00
22923;DHT22;11627;51.322;22.816;2022-07-12T10:48:47;18.00;1.00
22923;DHT22;11627;51.322;22.816;2022-07-12T10:51:17;18.00;1.00
22923;DHT22;11627;51.322;22.816;2022-07-12T10:53:48;18.10;1.00
22923;DHT22;11627;51.322;22.816;2022-07-12T10:56:26;18.10;1.00
22923;DHT22;11627;51.322;22.816;2022-07-12T10:58:58;18.00;1.00
22923;DHT22;11627;51.322;22.816;2022-07-12T11:01:26;17.90;1.00
22923;DHT22;11627;51.322;22.816;2022-07-12T11:04:06;17.90;1.00
22923;DHT22;11627;51.322;22.816;2022-07-12T11:06:41;17.90;1.00
22923;DHT22;11627;51.322;22.816;2022-07-12T11:09:12;17.90;1.00
22923;DHT22;11627;51.322;22.816;2022-07-12T11:11:49;17.80;99.90
22923;DHT22;11627;51.322;22.816;2022-07-12T11:14:36;17.90;1.00
22923;DHT22;11627;51.322;22.816;2022-07-12T11:17:05;17.70;1.00
22923;DHT22;11627;51.322;22.816;2022-07-12T11:19:32;17.70;1.00
22923;DHT22;11627;51.322;22.816;2022-07-12T11:21:58;17.70;1.00
22923;DHT22;11627;51.322;22.816;2022-07-12T11:24:30;17.70;1.00
22923;DHT22;11627;51.322;22.816;2022-07-12T11:26:58;17.60;1.00
22923;DHT22;11627;51.322;22.816;2022-07-12T11:29:31;17.60;1.00
22923;DHT22;11627;51.322;22.816;2022-07-12T11:32:03;17.50;1.00
22923;DHT22;11627;51.322;22.816;2022-07-12T11:34:35;17.50;1.00
22923;DHT22;11627;51.322;22.816;2022-07-12T11:37:01;17.50;1.00
22923;DHT22;11627;51.322;22.816;2022-07-12T11:39:38;17.40;1.00
22923;DHT22;11627;51.322;22.816;2022-07-12T11:42:07;17.50;1.00
22923;DHT22;11627;51.322;22.816;2022-07-12T11:44:47;17.50;1.00
22923;DHT22;11627;51.322;22.816;2022-07-12T11:47:17;17.60;1.00
22923;DHT22;11627;51.322;22.816;2022-07-12T11:49:50;17.60;1.00
22923;DHT22;11627;51.322;22.816;2022-07-12T11:52:21;18.00;1.00
22923;DHT22;11627;51.322;22.816;2022-07-12T11:54:51;17.60;1.00
22923;DHT22;11627;51.322;22.816;2022-07-12T11:57:23;17.60;1.00
22923;DHT22;11627;51.322;22.816;2022-07-12T11:59:48;17.50;1.00
22923;DHT22;11627;51.322;22.816;2022-07-12T12:02:16;17.50;1.00
22923;DHT22;11627;51.322;22.816;2022-07-12T12:04:54;17.60;1.00
22923;DHT22;11627;51.322;22.816;2022-07-12T12:07:23;17.60;1.00
22923;DHT22;11627;51.322;22.816;2022-07-12T12:10:14;17.60;1.00
22923;DHT22;11627;51.322;22.816;2022-07-12T12:12:55;17.70;1.00
22923;DHT22;11627;51.322;22.816;2022-07-12T12:15:32;17.60;1.00
22923;DHT22;11627;51.322;22.816;2022-07-12T12:18:04;17.60;1.00
22923;DHT22;11627;51.322;22.816;2022-07-12T12:20:40;17.70;1.00
22923;DHT22;11627;51.322;22.816;2022-07-12T12:23:19;17.70;1.00
22923;DHT22;11627;51.322;22.816;2022-07-12T12:25:45;17.80;1.00
22923;DHT22;11627;51.322;22.816;2022-07-12T12:28:12;17.90;1.00
22923;DHT22;11627;51.322;22.816;2022-07-12T12:30:56;17.90;1.00
22923;DHT22;11627;51.322;22.816;2022-07-12T12:33:47;18.70;1.00
22923;DHT22;11627;51.322;22.816;2022-07-12T12:36:26;18.00;1.00
22923;DHT22;11627;51.322;22.816;2022-07-12T12:38:59;18.00;1.00
22923;DHT22;11627;51.322;22.816;2022-07-12T12:41:30;18.10;99.90
22923;DHT22;11627;51.322;22.816;2022-07-12T12:44:06;18.10;99.90
22923;DHT22;11627;51.322;22.816;2022-07-12T12:46:53;18.10;99.90
22923;DHT22;11627;51.322;22.816;2022-07-12T12:49:48;18.20;1.00
22923;DHT22;11627;51.322;22.816;2022-07-12T12:52:17;19.20;99.90
22923;DHT22;11627;51.322;22.816;2022-07-12T12:54:44;18.20;99.90
22923;DHT22;11627;51.322;22.816;2022-07-12T12:57:13;18.20;99.90
22923;DHT22;11627;51.322;22.816;2022-07-12T12:59:40;18.20;99.90
22923;DHT22;11627;51.322;22.816;2022-07-12T13:02:07;18.20;99.90
22923;DHT22;11627;51.322;22.816;2022-07-12T13:04:35;18.20;99.90
22923;DHT22;11627;51.322;22.816;2022-07-12T13:07:04;18.20;99.90
22923;DHT22;11627;51.322;22.816;2022-07-12T13:09:33;18.20;99.90
22923;DHT22;11627;51.322;22.816;2022-07-12T13:12:03;18.20;99.90
22923;DHT22;11627;51.322;22.816;2022-07-12T13:14:32;18.20;99.90
22923;DHT22;11627;51.322;22.816;2022-07-12T13:16:59;18.20;99.90
22923;DHT22;11627;51.322;22.816;2022-07-12T13:19:24;18.20;99.90
22923;DHT22;11627;51.322;22.816;2022-07-12T13:21:50;18.20;99.90
22923;DHT22;11627;51.322;22.816;2022-07-12T13:24:17;18.20;99.90
22923;DHT22;11627;51.322;22.816;2022-07-12T13:26:44;18.20;99.90
22923;DHT22;11627;51.322;22.816;2022-07-12T13:29:09;18.10;99.90
22923;DHT22;11627;51.322;22.816;2022-07-12T13:31:35;18.10;99.90
22923;DHT22;11627;51.322;22.816;2022-07-12T13:34:02;19.50;99.90
22923;DHT22;11627;51.322;22.816;2022-07-12T13:36:28;18.10;99.90
22923;DHT22;11627;51.322;22.816;2022-07-12T13:38:54;18.10;99.90
22923;DHT22;11627;51.322;22.816;2022-07-12T13:41:20;18.20;99.90
22923;DHT22;11627;51.322;22.816;2022-07-12T13:43:47;18.20;99.90
22923;DHT22;11627;51.322;22.816;2022-07-12T13:46:14;18.50;99.90
22923;DHT22;11627;51.322;22.816;2022-07-12T13:48:41;17.90;99.90
22923;DHT22;11627;51.322;22.816;2022-07-12T13:51:07;17.70;99.90
22923;DHT22;11627;51.322;22.816;2022-07-12T13:53:33;17.90;99.90
22923;DHT22;11627;51.322;22.816;2022-07-12T13:55:59;17.80;99.90
22923;DHT22;11627;51.322;22.816;2022-07-12T13:58:26;18.00;99.90
22923;DHT22;11627;51.322;22.816;2022-07-12T14:00:52;17.90;99.90
22923;DHT22;11627;51.322;22.816;2022-07-12T14:03:18;17.80;99.90
22923;DHT22;11627;51.322;22.816;2022-07-12T14:05:45;17.90;99.90
22923;DHT22;11627;51.322;22.816;2022-07-12T14:08:10;18.00;99.90
22923;DHT22;11627;51.322;22.816;2022-07-12T14:10:37;17.80;99.90
22923;DHT22;11627;51.322;22.816;2022-07-12T14:13:05;17.70;1.00
22923;DHT22;11627;51.322;22.816;2022-07-12T14:15:32;17.70;1.00
22923;DHT22;11627;51.322;22.816;2022-07-12T14:18:04;17.70;1.00
22923;DHT22;11627;51.322;22.816;2022-07-12T14:20:31;17.60;1.00
22923;DHT22;11627;51.322;22.816;2022-07-12T14:23:00;17.50;1.00
22923;DHT22;11627;51.322;22.816;2022-07-12T14:25:26;17.30;1.00
22923;DHT22;11627;51.322;22.816;2022-07-12T14:27:52;17.20;1.00
22923;DHT22;11627;51.322;22.816;2022-07-12T14:30:17;17.10;1.00
22923;DHT22;11627;51.322;22.816;2022-07-12T14:32:44;16.80;1.00
22923;DHT22;11627;51.322;22.816;2022-07-12T14:35:10;16.50;1.00
22923;DHT22;11627;51.322;22.816;2022-07-12T14:37:37;16.30;1.00
22923;DHT22;11627;51.322;22.816;2022-07-12T14:40:04;16.10;1.00
22923;DHT22;11627;51.322;22.816;2022-07-12T14:42:32;16.10;1.00
22923;DHT22;11627;51.322;22.816;2022-07-12T14:44:59;15.90;17.10
22923;DHT22;11627;51.322;22.816;2022-07-12T14:47:26;15.90;22.80
22923;DHT22;11627;51.322;22.816;2022-07-12T14:49:53;15.90;29.20
22923;DHT22;11627;51.322;22.816;2022-07-12T14:52:21;15.80;29.40
22923;DHT22;11627;51.322;22.816;2022-07-12T14:54:48;16.20;39.10
22923;DHT22;11627;51.322;22.816;2022-07-12T14:57:14;15.90;41.40
22923;DHT22;11627;51.322;22.816;2022-07-12T14:59:41;16.10;40.60
22923;DHT22;11627;51.322;22.816;2022-07-12T15:02:08;15.80;33.70
22923;DHT22;11627;51.322;22.816;2022-07-12T15:04:34;15.80;36.50
22923;DHT22;11627;51.322;22.816;2022-07-12T15:06:59;15.90;2.40
22923;DHT22;11627;51.322;22.816;2022-07-12T15:09:26;16.20;5.90
22923;DHT22;11627;51.322;22.816;2022-07-12T15:11:54;15.80;12.10
22923;DHT22;11627;51.322;22.816;2022-07-12T15:14:22;15.90;17.80
22923;DHT22;11627;51.322;22.816;2022-07-12T15:16:47;15.80;18.50
22923;DHT22;11627;51.322;22.816;2022-07-12T15:19:14;15.50;26.80
22923;DHT22;11627;51.322;22.816;2022-07-12T15:21:40;15.60;32.90
22923;DHT22;11627;51.322;22.816;2022-07-12T15:24:07;15.90;33.00
22923;DHT22;11627;51.322;22.816;2022-07-12T15:26:34;15.80;28.80
22923;DHT22;11627;51.322;22.816;2022-07-12T15:29:02;15.90;19.30
22923;DHT22;11627;51.322;22.816;2022-07-12T15:31:29;17.20;17.10
22923;DHT22;11627;51.322;22.816;2022-07-12T15:33:55;15.70;16.10
22923;DHT22;11627;51.322;22.816;2022-07-12T15:36:21;15.40;12.70
22923;DHT22;11627;51.322;22.816;2022-07-12T15:38:47;15.70;17.00
22923;DHT22;11627;51.322;22.816;2022-07-12T15:41:14;15.40;10.50
22923;DHT22;11627;51.322;22.816;2022-07-12T15:43:41;15.20;24.20
22923;DHT22;11627;51.322;22.816;2022-07-12T15:46:08;15.60;30.00
22923;DHT22;11627;51.322;22.816;2022-07-12T15:48:36;15.30;23.90
22923;DHT22;11627;51.322;22.816;2022-07-12T15:51:02;17.80;26.50
22923;DHT22;11627;51.322;22.816;2022-07-12T15:53:29;15.20;26.90
22923;DHT22;11627;51.322;22.816;2022-07-12T15:58:32;15.40;44.40
22923;DHT22;11627;51.322;22.816;2022-07-12T16:01:00;15.20;37.50
22923;DHT22;11627;51.322;22.816;2022-07-12T16:03:27;16.80;41.20
22923;DHT22;11627;51.322;22.816;2022-07-12T16:05:54;15.20;42.80
22923;DHT22;11627;51.322;22.816;2022-07-12T16:08:22;16.30;45.60